createdAt,value
2023-05-25T00:00:30.390Z,25.77
2023-05-25T00:05:35.334Z,25.43
2023-05-25T00:10:39.023Z,26.88
2023-05-25T00:15:42.666Z,46.60
2023-05-25T00:20:48.475Z,35.57
2023-05-25T00:25:52.024Z,33.38
2023-05-25T00:30:56.077Z,34.97
2023-05-25T00:36:01.306Z,61.08
2023-05-25T00:41:06.105Z,70.13
2023-05-25T00:46:11.777Z,32.65
2023-05-25T00:51:17.379Z,33.90
2023-05-25T00:56:24.047Z,33.00
2023-05-25T01:01:33.661Z,37.38
2023-05-25T01:06:45.467Z,37.05
2023-05-25T01:11:52.890Z,43.70
2023-05-25T01:16:57.035Z,57.22
2023-05-25T01:22:07.819Z,106.53
2023-05-25T01:27:17.404Z,91.43
2023-05-25T01:32:21.765Z,59.88
2023-05-25T01:42:32.156Z,91.72
2023-05-25T01:47:45.771Z,113.70
2023-05-25T01:52:56.718Z,156.85
2023-05-25T01:58:01.047Z,132.85
2023-05-25T02:03:05.978Z,120.28
2023-05-25T02:08:10.978Z,167.00
2023-05-25T02:13:14.509Z,60.30
2023-05-25T02:18:18.380Z,148.27
2023-05-25T02:23:23.231Z,129.97
2023-05-25T02:28:26.749Z,153.35
2023-05-25T02:33:30.598Z,75.82
2023-05-25T02:38:35.522Z,110.18
2023-05-25T02:43:39.414Z,101.15
2023-05-25T02:48:44.082Z,59.67
2023-05-25T02:53:49.463Z,77.43
2023-05-25T02:58:54.628Z,59.45
2023-05-25T03:03:58.439Z,27.48
2023-05-25T03:09:05.283Z,32.90
2023-05-25T03:14:08.893Z,25.55
2023-05-25T03:19:13.001Z,27.43
2023-05-25T03:24:17.965Z,28.58
2023-05-25T03:29:21.832Z,30.70
2023-05-25T03:34:26.472Z,30.77
2023-05-25T03:39:31.613Z,30.05
2023-05-25T03:44:35.097Z,30.85
2023-05-25T03:49:38.595Z,30.07
2023-05-25T03:54:43.539Z,31.87
2023-05-25T03:59:47.139Z,27.60
2023-05-25T04:04:52.088Z,28.27
2023-05-25T04:09:58.300Z,26.85
2023-05-25T04:15:04.134Z,26.85
2023-05-25T04:20:11.185Z,26.45
2023-05-25T04:25:17.181Z,26.58
2023-05-25T04:30:20.710Z,26.45
2023-05-25T04:35:24.204Z,24.95
2023-05-25T04:40:29.141Z,22.17
2023-05-25T04:45:33.526Z,22.75
2023-05-25T04:50:37.569Z,21.80
2023-05-25T05:00:47.399Z,18.90
2023-05-25T05:05:50.936Z,17.73
2023-05-25T05:10:55.942Z,15.68
2023-05-25T05:15:59.577Z,15.32
2023-05-25T05:21:03.606Z,13.85
2023-05-25T05:26:11.175Z,14.55
2023-05-25T05:31:17.410Z,14.48
2023-05-25T05:36:21.035Z,16.08
2023-05-25T05:41:26.023Z,14.85
2023-05-25T05:46:29.785Z,15.68
2023-05-25T05:51:33.656Z,15.35
2023-05-25T05:56:38.627Z,17.02
2023-05-25T06:01:42.784Z,17.83
2023-05-25T06:06:46.487Z,19.65
2023-05-25T06:11:51.687Z,17.15
2023-05-25T06:16:56.097Z,18.65
2023-05-25T06:21:59.749Z,22.77
2023-05-25T06:27:05.104Z,23.25
2023-05-25T06:32:11.092Z,17.92
2023-05-25T06:37:15.863Z,18.67
2023-05-25T06:42:20.861Z,22.50
2023-05-25T06:47:24.452Z,23.27
2023-05-25T06:52:29.468Z,19.52
2023-05-25T06:57:34.829Z,23.50
2023-05-25T07:02:38.426Z,19.08
2023-05-25T07:07:42.038Z,20.83
2023-05-25T07:12:47.141Z,24.13
2023-05-25T07:17:50.770Z,20.13
2023-05-25T07:22:54.741Z,19.50
2023-05-25T07:33:02.862Z,16.83
2023-05-25T07:38:06.843Z,21.20
2023-05-25T07:48:15.385Z,17.92
2023-05-25T07:58:23.618Z,17.63
2023-05-25T08:03:39.914Z,16.90
2023-05-25T08:08:50.977Z,20.83
2023-05-25T08:14:19.744Z,16.50
2023-05-25T08:19:24.338Z,18.08
2023-05-25T08:24:27.867Z,14.95
2023-05-25T08:29:32.794Z,16.88
2023-05-25T08:34:36.333Z,18.00
2023-05-25T08:39:39.947Z,16.40
2023-05-25T08:44:45.064Z,17.50
2023-05-25T08:49:51.138Z,17.75
2023-05-25T08:54:59.870Z,16.95
2023-05-25T09:00:10.977Z,21.08
2023-05-25T09:05:15.087Z,19.27
2023-05-25T09:10:19.220Z,21.42
2023-05-25T09:15:24.140Z,20.35
2023-05-25T09:20:31.758Z,20.00
2023-05-25T09:25:36.693Z,18.25
2023-05-25T09:30:42.293Z,16.42
2023-05-25T09:35:46.316Z,17.45
2023-05-25T09:40:49.813Z,19.10
2023-05-25T09:45:55.454Z,15.75
2023-05-25T09:50:59.244Z,17.05
2023-05-25T09:56:04.188Z,21.02
2023-05-25T10:01:09.570Z,17.90
2023-05-25T10:06:14.457Z,16.63
2023-05-25T10:11:18.894Z,17.85
2023-05-25T10:16:28.118Z,16.80
2023-05-25T10:21:33.008Z,17.00
2023-05-25T10:26:41.780Z,15.75
2023-05-25T10:31:47.528Z,18.65
2023-05-25T10:36:52.514Z,16.42
2023-05-25T10:41:57.096Z,16.35
2023-05-25T10:47:02.134Z,16.50
2023-05-25T10:52:06.373Z,18.60
2023-05-25T10:57:11.367Z,18.90
2023-05-25T11:02:16.844Z,19.67
2023-05-25T11:07:23.471Z,20.75
2023-05-25T11:12:28.383Z,21.17
2023-05-25T11:17:36.176Z,23.77
2023-05-25T11:22:40.567Z,22.67
2023-05-25T11:27:47.626Z,23.60
2023-05-25T11:32:52.740Z,27.58
2023-05-25T11:37:56.577Z,25.20
2023-05-25T11:43:01.458Z,24.65
2023-05-25T11:48:07.750Z,23.52
2023-05-25T11:53:11.975Z,23.60
2023-05-25T11:58:16.477Z,26.48
2023-05-25T12:03:33.908Z,25.65
2023-05-25T12:08:37.808Z,22.98
2023-05-25T12:13:42.847Z,22.67
2023-05-25T12:18:48.411Z,22.88
2023-05-25T12:23:52.440Z,19.85
2023-05-25T12:29:03.121Z,19.23
2023-05-25T12:34:12.366Z,22.08
2023-05-25T12:39:17.276Z,19.77
2023-05-25T12:44:27.879Z,17.95
2023-05-25T12:49:34.226Z,17.13
2023-05-25T12:54:41.180Z,18.85
2023-05-25T12:59:45.833Z,15.35
2023-05-25T13:04:50.890Z,15.20
2023-05-25T13:09:54.626Z,15.00
2023-05-25T13:14:58.176Z,10.60
2023-05-25T13:20:04.688Z,11.30
2023-05-25T13:25:08.737Z,10.68
2023-05-25T13:35:23.556Z,9.85
2023-05-25T13:40:27.603Z,10.70
2023-05-25T13:45:31.153Z,9.10
2023-05-25T13:50:36.152Z,9.50
2023-05-25T13:55:39.774Z,9.20
2023-05-25T14:00:43.544Z,9.43
2023-05-25T14:05:49.017Z,8.52
2023-05-25T14:10:54.470Z,8.07
2023-05-25T14:15:58.034Z,9.38
2023-05-25T14:21:03.018Z,8.32
2023-05-25T14:26:06.677Z,8.65
2023-05-25T14:31:10.285Z,7.72
2023-05-25T14:36:15.230Z,8.38
2023-05-25T14:41:18.743Z,8.75
2023-05-25T14:46:22.600Z,9.93
2023-05-25T14:56:32.766Z,9.63
2023-05-25T15:01:36.436Z,9.15
2023-05-25T15:06:41.471Z,6.65
2023-05-25T15:11:45.067Z,7.55
2023-05-25T15:16:48.578Z,7.53
2023-05-25T15:21:53.536Z,7.95
2023-05-25T15:26:57.064Z,6.90
2023-05-25T15:32:00.818Z,6.68
2023-05-25T15:37:06.337Z,7.28
2023-05-25T15:42:09.869Z,9.13
2023-05-25T15:47:13.557Z,6.57
2023-05-25T15:52:18.458Z,8.02
2023-05-25T15:57:21.804Z,7.72
2023-05-25T16:02:25.371Z,6.75
2023-05-25T16:07:30.251Z,7.82
2023-05-25T16:12:33.992Z,8.73
2023-05-25T16:17:37.550Z,8.02
2023-05-25T16:22:42.466Z,6.95
2023-05-25T16:27:47.705Z,9.60
2023-05-25T16:32:51.252Z,7.10
2023-05-25T16:37:56.276Z,10.32
2023-05-25T16:42:59.781Z,10.02
2023-05-25T16:48:03.425Z,11.25
2023-05-25T16:53:08.638Z,7.03
2023-05-25T16:58:12.507Z,8.43
2023-05-25T17:03:16.171Z,7.30
2023-05-25T17:08:21.201Z,9.13
2023-05-25T17:13:24.771Z,10.70
2023-05-25T17:18:28.792Z,13.70
2023-05-25T17:28:36.996Z,9.45
2023-05-25T17:33:40.506Z,13.17
2023-05-25T17:38:45.424Z,9.45
2023-05-25T17:43:48.957Z,9.48
2023-05-25T17:48:52.534Z,8.30
2023-05-25T17:53:57.613Z,12.07
2023-05-25T17:59:01.234Z,10.02
2023-05-25T18:04:05.125Z,11.73
2023-05-25T18:09:10.300Z,10.10
2023-05-25T18:14:14.036Z,8.57
2023-05-25T18:19:20.350Z,14.60
2023-05-25T18:24:26.055Z,12.02
2023-05-25T18:29:29.582Z,10.65
2023-05-25T18:34:33.207Z,9.30
2023-05-25T18:39:38.261Z,9.90
2023-05-25T18:44:41.915Z,10.20
2023-05-25T18:49:45.660Z,13.30
2023-05-25T18:54:50.679Z,15.68
2023-05-25T18:59:55.669Z,14.88
2023-05-25T19:04:59.165Z,16.30
2023-05-25T19:10:04.099Z,13.40
2023-05-25T19:15:08.821Z,16.88
2023-05-25T19:20:12.979Z,15.02
2023-05-25T19:25:18.919Z,17.02
2023-05-25T19:30:23.980Z,15.30
2023-05-25T19:35:27.524Z,14.93
2023-05-25T19:40:33.464Z,17.10
2023-05-25T19:45:37.143Z,16.30
2023-05-25T19:50:40.742Z,21.50
2023-05-25T19:55:45.996Z,19.70
2023-05-25T20:00:49.749Z,18.65
2023-05-25T20:05:53.582Z,17.63
2023-05-25T20:10:58.586Z,19.80
2023-05-25T20:16:02.169Z,19.15
2023-05-25T20:21:06.903Z,27.47
2023-05-25T20:26:11.865Z,29.05
2023-05-25T20:31:15.425Z,19.48
2023-05-25T20:36:18.970Z,16.97
2023-05-25T20:41:23.909Z,15.23
2023-05-25T20:46:27.589Z,20.85
2023-05-25T20:51:32.823Z,18.73
2023-05-25T20:56:38.244Z,18.35
2023-05-25T21:01:44.319Z,16.52
2023-05-25T21:06:47.889Z,13.23
2023-05-25T21:11:52.785Z,19.33
2023-05-25T21:16:56.513Z,13.43
2023-05-25T21:22:00.162Z,23.00
2023-05-25T21:27:05.531Z,17.90
2023-05-25T21:32:09.633Z,13.45
2023-05-25T21:37:13.181Z,20.30
2023-05-25T21:42:18.195Z,18.63
2023-05-25T21:47:22.257Z,18.30
2023-05-25T21:52:25.934Z,18.98
2023-05-25T21:57:30.859Z,17.70
2023-05-25T22:02:34.655Z,24.20
2023-05-25T22:07:38.370Z,17.27
2023-05-25T22:12:43.489Z,16.07
2023-05-25T22:17:47.310Z,16.80
2023-05-25T22:22:51.080Z,17.75
2023-05-25T22:27:56.744Z,20.73
2023-05-25T22:33:00.333Z,19.00
2023-05-25T22:38:03.943Z,16.40
2023-05-25T22:43:12.903Z,19.95
2023-05-25T22:48:16.470Z,18.88
2023-05-25T22:53:20.068Z,20.55
2023-05-25T22:58:25.505Z,20.23
2023-05-25T23:03:30.314Z,17.75
2023-05-25T23:08:33.964Z,19.83
2023-05-25T23:13:38.908Z,19.25
2023-05-25T23:18:43.113Z,18.13
2023-05-25T23:23:46.613Z,21.38
2023-05-25T23:28:51.643Z,17.48
2023-05-25T23:33:58.368Z,20.05
2023-05-25T23:39:01.926Z,18.80
2023-05-25T23:44:07.360Z,20.07
2023-05-25T23:49:10.891Z,19.73
2023-05-25T23:54:14.429Z,20.65
2023-05-25T23:59:19.348Z,19.52
